createdAt,value
2017-09-01T00:01:16.120Z,3.60
2017-09-01T00:03:44.240Z,3.60
2017-09-01T00:06:12.414Z,3.33
2017-09-01T00:08:48.622Z,3.07
2017-09-01T00:11:16.785Z,3.60
2017-09-01T00:13:44.961Z,3.30
2017-09-01T00:16:13.173Z,3.13
2017-09-01T00:18:41.394Z,3.30
2017-09-01T00:21:09.662Z,3.20
2017-09-01T00:23:37.942Z,2.70
2017-09-01T00:26:06.108Z,2.50
2017-09-01T00:28:34.305Z,2.73
2017-09-01T00:31:02.614Z,2.70
2017-09-01T00:33:30.801Z,2.70
2017-09-01T00:35:58.909Z,2.80
2017-09-01T00:38:27.031Z,2.70
2017-09-01T00:40:55.333Z,3.40
2017-09-01T00:43:23.470Z,2.47
2017-09-01T00:45:51.766Z,3.07
2017-09-01T00:48:20.065Z,3.10
2017-09-01T00:50:48.200Z,3.30
2017-09-01T00:53:16.476Z,3.30
2017-09-01T00:55:44.555Z,3.33
2017-09-01T00:58:12.877Z,3.67
2017-09-01T01:00:41.088Z,3.00
2017-09-01T01:03:09.225Z,3.87
2017-09-01T01:05:37.639Z,3.60
2017-09-01T01:08:05.813Z,3.27
2017-09-01T01:10:34.083Z,3.60
2017-09-01T01:13:02.322Z,3.30
2017-09-01T01:15:30.525Z,3.23
2017-09-01T01:17:58.694Z,3.47
2017-09-01T01:20:26.828Z,3.20
2017-09-01T01:22:55.897Z,3.70
2017-09-01T01:25:24.053Z,4.57
2017-09-01T01:27:52.242Z,3.60
2017-09-01T01:30:20.417Z,3.53
2017-09-01T01:32:48.523Z,3.37
2017-09-01T01:35:16.721Z,4.97
2017-09-01T01:37:44.924Z,3.70
2017-09-01T01:40:13.064Z,3.20
2017-09-01T01:42:41.219Z,3.17
2017-09-01T01:45:09.371Z,3.77
2017-09-01T01:47:37.587Z,3.13
2017-09-01T01:50:05.793Z,3.23
2017-09-01T01:52:33.998Z,3.37
2017-09-01T01:55:02.269Z,3.40
2017-09-01T01:57:30.403Z,3.50
2017-09-01T01:59:58.518Z,3.33
2017-09-01T02:02:26.759Z,3.57
2017-09-01T02:04:58.723Z,3.30
2017-09-01T02:07:26.928Z,3.57
2017-09-01T02:09:55.205Z,4.37
2017-09-01T02:12:23.321Z,3.73
2017-09-01T02:14:51.585Z,3.73
2017-09-01T02:17:20.566Z,4.13
2017-09-01T02:19:48.779Z,4.00
2017-09-01T02:22:16.911Z,4.30
2017-09-01T02:24:45.130Z,4.33
2017-09-01T02:27:13.329Z,4.57
2017-09-01T02:29:41.718Z,4.23
2017-09-01T02:32:09.934Z,4.60
2017-09-01T02:34:38.214Z,4.83
2017-09-01T02:37:06.477Z,5.27
2017-09-01T02:39:34.707Z,4.90
2017-09-01T02:42:02.889Z,4.70
2017-09-01T02:44:31.092Z,4.33
2017-09-01T02:46:59.217Z,4.93
2017-09-01T02:49:27.379Z,5.83
2017-09-01T02:51:55.486Z,4.70
2017-09-01T02:54:28.004Z,5.00
2017-09-01T02:56:56.282Z,5.50
2017-09-01T02:59:24.489Z,5.13
2017-09-01T03:01:52.602Z,4.87
2017-09-01T03:04:20.741Z,5.00
2017-09-01T03:06:48.854Z,6.00
2017-09-01T03:09:17.158Z,6.10
2017-09-01T03:11:45.317Z,5.30
2017-09-01T03:14:13.527Z,5.40
2017-09-01T03:16:41.761Z,5.13
2017-09-01T03:19:13.714Z,5.00
2017-09-01T03:21:41.879Z,5.47
2017-09-01T03:24:10.000Z,4.67
2017-09-01T03:26:38.268Z,5.57
2017-09-01T03:29:06.511Z,5.40
2017-09-01T03:31:34.730Z,4.73
2017-09-01T03:34:02.966Z,5.70
2017-09-01T03:36:31.068Z,4.90
2017-09-01T03:38:59.346Z,5.80
2017-09-01T03:41:27.481Z,5.47
2017-09-01T03:43:55.716Z,5.77
2017-09-01T03:46:25.874Z,6.90
2017-09-01T03:48:56.952Z,6.23
2017-09-01T03:51:27.238Z,6.47
2017-09-01T03:53:55.594Z,5.80
2017-09-01T03:56:25.449Z,6.67
2017-09-01T03:58:53.716Z,6.27
2017-09-01T04:01:21.827Z,6.47
2017-09-01T04:03:50.018Z,6.40
2017-09-01T04:06:22.392Z,6.33
2017-09-01T04:08:51.690Z,6.80
2017-09-01T04:11:19.863Z,6.07
2017-09-01T04:13:48.043Z,6.80
2017-09-01T04:16:16.183Z,7.27
2017-09-01T04:18:46.314Z,7.40
2017-09-01T04:21:14.450Z,7.10
2017-09-01T04:23:42.707Z,6.63
2017-09-01T04:26:12.201Z,7.37
2017-09-01T04:28:40.500Z,6.97
2017-09-01T04:31:08.610Z,7.03
2017-09-01T04:33:36.736Z,6.90
2017-09-01T04:36:05.018Z,7.50
2017-09-01T04:38:33.231Z,7.67
2017-09-01T04:41:01.393Z,7.63
2017-09-01T04:43:29.923Z,7.40
2017-09-01T04:46:00.916Z,6.93
2017-09-01T04:48:29.159Z,8.10
2017-09-01T04:50:57.470Z,7.00
2017-09-01T04:53:25.643Z,7.23
2017-09-01T04:55:53.886Z,8.07
2017-09-01T04:58:22.598Z,8.40
2017-09-01T05:00:51.817Z,7.47
2017-09-01T05:03:20.263Z,8.43
2017-09-01T05:05:49.460Z,9.70
2017-09-01T05:08:18.001Z,8.10
2017-09-01T05:10:46.140Z,6.23
2017-09-01T05:13:14.322Z,7.50
2017-09-01T05:15:42.738Z,7.10
2017-09-01T05:18:11.020Z,6.97
2017-09-01T05:20:39.208Z,6.57
2017-09-01T05:23:08.538Z,6.70
2017-09-01T05:25:36.660Z,8.40
2017-09-01T05:28:04.772Z,6.53
2017-09-01T05:30:32.928Z,6.87
2017-09-01T05:33:01.143Z,6.60
2017-09-01T05:35:46.787Z,7.30
2017-09-01T05:38:15.131Z,7.80
2017-09-01T05:40:43.639Z,6.30
2017-09-01T05:43:11.816Z,7.60
2017-09-01T05:45:40.945Z,7.07
2017-09-01T05:48:09.436Z,7.13
2017-09-01T05:50:44.374Z,7.50
2017-09-01T05:53:12.819Z,7.50
2017-09-01T05:55:41.085Z,8.37
2017-09-01T05:58:09.270Z,7.93
2017-09-01T06:00:42.800Z,7.70
2017-09-01T06:03:11.065Z,8.17
2017-09-01T06:05:39.307Z,8.10
2017-09-01T06:08:07.473Z,8.60
2017-09-01T06:10:35.584Z,8.03
2017-09-01T06:13:03.903Z,7.97
2017-09-01T06:15:32.039Z,9.37
2017-09-01T06:18:00.209Z,8.37
2017-09-01T06:20:28.326Z,9.27
2017-09-01T06:22:57.016Z,8.50
2017-09-01T06:25:25.337Z,8.63
2017-09-01T06:27:53.498Z,9.77
2017-09-01T06:30:21.666Z,13.80
2017-09-01T06:32:49.862Z,13.63
2017-09-01T06:35:18.091Z,14.67
2017-09-01T06:37:46.312Z,13.70
2017-09-01T06:40:14.450Z,12.00
2017-09-01T06:42:45.966Z,12.97
2017-09-01T06:45:14.189Z,11.13
2017-09-01T06:47:42.555Z,11.90
2017-09-01T06:50:10.850Z,10.70
2017-09-01T06:52:39.012Z,9.93
2017-09-01T06:55:07.375Z,9.80
2017-09-01T06:57:35.715Z,9.60
2017-09-01T07:00:12.338Z,9.33
2017-09-01T07:02:40.529Z,8.97
2017-09-01T07:05:08.908Z,7.60
2017-09-01T07:07:39.020Z,8.17
2017-09-01T07:10:08.590Z,8.70
2017-09-01T07:12:36.755Z,8.00
2017-09-01T07:15:04.862Z,8.80
2017-09-01T07:17:34.081Z,8.77
2017-09-01T07:20:02.370Z,8.70
2017-09-01T07:25:09.805Z,9.37
2017-09-01T07:27:38.980Z,8.67
2017-09-01T07:30:08.035Z,9.27
2017-09-01T07:32:36.357Z,12.83
2017-09-01T07:35:05.460Z,11.80
2017-09-01T07:37:33.848Z,10.53
2017-09-01T07:40:02.115Z,10.40
2017-09-01T07:42:31.197Z,9.40
2017-09-01T07:44:59.498Z,10.63
2017-09-01T07:47:27.666Z,8.57
2017-09-01T07:49:58.210Z,9.13
2017-09-01T07:52:26.547Z,8.57
2017-09-01T07:54:54.908Z,9.90
2017-09-01T07:57:23.038Z,9.77
2017-09-01T08:02:24.703Z,8.70
2017-09-01T08:04:53.069Z,8.23
2017-09-01T08:07:24.563Z,8.80
2017-09-01T08:09:56.892Z,8.47
2017-09-01T08:15:08.415Z,7.60
2017-09-01T08:17:36.874Z,6.40
2017-09-01T08:20:05.000Z,6.20
2017-09-01T08:22:33.144Z,5.83
2017-09-01T08:25:01.286Z,5.53
2017-09-01T08:27:29.431Z,5.10
2017-09-01T08:29:58.143Z,4.70
2017-09-01T08:32:26.536Z,5.30
2017-09-01T08:35:00.926Z,5.20
2017-09-01T08:37:30.445Z,3.63
2017-09-01T08:39:58.726Z,4.37
2017-09-01T08:42:26.896Z,4.70
2017-09-01T08:44:55.102Z,4.40
2017-09-01T08:47:23.398Z,4.57
2017-09-01T08:49:51.590Z,4.80
2017-09-01T08:52:20.070Z,5.70
2017-09-01T08:54:48.998Z,5.20
2017-09-01T08:57:17.365Z,3.87
2017-09-01T08:59:45.541Z,4.00
2017-09-01T09:02:13.668Z,3.77
2017-09-01T09:04:41.792Z,4.67
2017-09-01T09:07:10.300Z,4.60
2017-09-01T09:09:38.543Z,3.70
2017-09-01T09:12:06.713Z,3.70
2017-09-01T09:14:34.919Z,3.20
2017-09-01T09:17:06.201Z,3.00
2017-09-01T09:19:34.493Z,4.03
2017-09-01T09:22:02.726Z,4.20
2017-09-01T09:24:30.911Z,3.70
2017-09-01T09:26:59.444Z,3.13
2017-09-01T09:29:40.204Z,3.07
2017-09-01T09:32:08.336Z,3.77
2017-09-01T09:34:37.231Z,3.03
2017-09-01T09:37:05.386Z,2.47
2017-09-01T09:39:33.555Z,3.00
2017-09-01T09:42:01.959Z,2.20
2017-09-01T09:44:30.245Z,2.73
2017-09-01T09:46:58.518Z,2.30
2017-09-01T09:49:26.752Z,3.30
2017-09-01T09:51:55.306Z,2.70
2017-09-01T09:54:23.447Z,2.40
2017-09-01T09:56:51.979Z,2.73
2017-09-01T09:59:20.212Z,2.60
2017-09-01T10:01:48.392Z,2.23
2017-09-01T10:04:16.656Z,2.70
2017-09-01T10:06:44.837Z,2.70
2017-09-01T10:09:12.964Z,3.17
2017-09-01T10:11:41.405Z,2.40
2017-09-01T10:14:09.697Z,3.40
2017-09-01T10:16:37.945Z,2.73
2017-09-01T10:19:06.211Z,3.23
2017-09-01T10:21:35.312Z,2.63
2017-09-01T10:24:04.805Z,2.77
2017-09-01T10:26:33.251Z,3.20
2017-09-01T10:29:01.886Z,3.00
2017-09-01T10:31:30.158Z,3.03
2017-09-01T10:34:00.223Z,3.47
2017-09-01T10:36:28.451Z,3.17
2017-09-01T10:38:57.190Z,3.40
2017-09-01T10:41:25.559Z,3.50
2017-09-01T10:43:54.771Z,3.30
2017-09-01T10:46:24.452Z,2.93
2017-09-01T10:49:04.880Z,2.73
2017-09-01T10:51:44.726Z,2.80
2017-09-01T10:54:30.365Z,3.07
2017-09-01T10:57:10.293Z,3.50
2017-09-01T10:59:38.440Z,3.10
2017-09-01T11:02:06.595Z,3.07
2017-09-01T11:04:34.803Z,3.53
2017-09-01T11:09:42.696Z,3.20
2017-09-01T11:12:12.285Z,2.83
2017-09-01T11:14:40.590Z,2.80
2017-09-01T11:17:09.429Z,2.60
2017-09-01T11:19:43.422Z,3.37
2017-09-01T11:22:17.326Z,3.20
2017-09-01T11:24:46.735Z,2.77
2017-09-01T11:27:14.868Z,2.90
2017-09-01T11:29:43.078Z,2.50
2017-09-01T11:32:11.360Z,3.20
2017-09-01T11:34:39.844Z,3.30
2017-09-01T11:37:08.207Z,3.80
2017-09-01T11:39:36.363Z,2.77
2017-09-01T11:42:04.609Z,2.90
2017-09-01T11:44:32.802Z,2.73
2017-09-01T11:47:01.038Z,2.90
2017-09-01T11:49:29.208Z,2.93
2017-09-01T11:51:57.510Z,2.40
2017-09-01T11:54:26.149Z,2.70
2017-09-01T11:56:54.423Z,3.03
2017-09-01T11:59:22.713Z,2.93
2017-09-01T12:01:51.682Z,2.63
2017-09-01T12:04:19.879Z,2.70
2017-09-01T12:06:48.032Z,3.17
2017-09-01T12:09:17.096Z,2.73
2017-09-01T12:11:45.526Z,3.13
2017-09-01T12:14:14.005Z,2.90
2017-09-01T12:16:43.101Z,2.67
2017-09-01T12:19:11.401Z,2.70
2017-09-01T12:21:39.622Z,2.87
2017-09-01T12:24:07.842Z,2.77
2017-09-01T12:26:36.968Z,2.97
2017-09-01T12:29:05.320Z,3.37
2017-09-01T12:31:33.729Z,2.10
2017-09-01T12:34:02.080Z,3.30
2017-09-01T12:36:31.799Z,2.63
2017-09-01T12:39:00.924Z,2.97
2017-09-01T12:41:29.134Z,2.37
2017-09-01T12:43:57.276Z,2.80
2017-09-01T12:46:26.889Z,2.67
2017-09-01T12:48:55.076Z,2.40
2017-09-01T12:51:23.329Z,2.97
2017-09-01T12:53:51.446Z,3.10
2017-09-01T12:56:19.631Z,2.90
2017-09-01T12:58:47.779Z,2.70
2017-09-01T13:01:16.297Z,2.30
2017-09-01T13:03:45.454Z,3.00
2017-09-01T13:06:13.583Z,2.53
2017-09-01T13:08:41.902Z,3.40
2017-09-01T13:11:10.914Z,2.63
2017-09-01T13:13:39.096Z,2.93
2017-09-01T13:16:07.246Z,3.07
2017-09-01T13:18:39.359Z,3.30
2017-09-01T13:21:12.217Z,2.80
2017-09-01T13:23:40.619Z,2.40
2017-09-01T13:26:09.169Z,3.30
2017-09-01T13:28:37.484Z,2.27
2017-09-01T13:31:05.923Z,2.63
2017-09-01T13:33:34.901Z,2.57
2017-09-01T13:36:03.159Z,3.00
2017-09-01T13:38:31.411Z,2.77
2017-09-01T13:40:59.575Z,2.30
2017-09-01T13:43:27.818Z,2.17
2017-09-01T13:45:59.923Z,2.37
2017-09-01T13:48:28.206Z,2.30
2017-09-01T13:50:56.414Z,2.40
2017-09-01T13:53:24.530Z,2.77
2017-09-01T13:55:52.720Z,2.53
2017-09-01T13:58:22.074Z,2.60
2017-09-01T14:00:51.603Z,2.50
2017-09-01T14:03:21.810Z,2.50
2017-09-01T14:05:50.003Z,2.60
2017-09-01T14:08:18.628Z,2.77
2017-09-01T14:10:55.749Z,3.00
2017-09-01T14:13:24.340Z,3.90
2017-09-01T14:15:54.182Z,4.07
2017-09-01T14:18:26.818Z,3.70
2017-09-01T14:20:55.986Z,3.80
2017-09-01T14:23:25.531Z,3.50
2017-09-01T14:25:58.596Z,3.70
2017-09-01T14:28:28.000Z,3.90
2017-09-01T14:30:57.573Z,3.57
2017-09-01T14:33:27.505Z,4.03
2017-09-01T14:35:56.217Z,3.33
2017-09-01T14:38:26.425Z,2.80
2017-09-01T14:40:55.508Z,3.40
2017-09-01T14:43:26.527Z,3.03
2017-09-01T14:45:59.918Z,2.87
2017-09-01T14:48:28.088Z,3.30
2017-09-01T14:50:58.153Z,3.97
2017-09-01T14:53:29.084Z,3.43
2017-09-01T14:55:57.615Z,2.70
2017-09-01T15:01:25.641Z,3.53
2017-09-01T15:03:58.481Z,3.37
2017-09-01T15:06:28.332Z,3.57
2017-09-01T15:08:57.430Z,3.33
2017-09-01T15:11:27.526Z,3.13
2017-09-01T15:13:58.942Z,2.00
2017-09-01T15:16:27.942Z,2.50
2017-09-01T15:18:57.181Z,2.40
2017-09-01T15:21:29.140Z,2.23
2017-09-01T15:23:58.367Z,2.43
2017-09-01T15:26:27.571Z,2.13
2017-09-01T15:28:56.306Z,2.70
2017-09-01T15:34:34.526Z,1.97
2017-09-01T15:37:23.127Z,2.03
2017-09-01T15:39:51.654Z,2.63
2017-09-01T15:42:28.026Z,2.20
2017-09-01T15:44:56.523Z,2.10
2017-09-01T15:47:25.207Z,2.07
2017-09-01T15:49:54.297Z,2.57
2017-09-01T15:52:23.321Z,2.47
2017-09-01T15:54:52.476Z,2.30
2017-09-01T15:57:22.414Z,2.23
2017-09-01T15:59:50.812Z,1.80
2017-09-01T16:02:20.832Z,2.63
2017-09-01T16:04:51.800Z,2.80
2017-09-01T16:07:19.949Z,2.67
2017-09-01T16:09:48.498Z,2.57
2017-09-01T16:12:22.225Z,2.50
2017-09-01T16:14:51.536Z,2.60
2017-09-01T16:17:19.887Z,2.87
2017-09-01T16:19:48.783Z,2.70
2017-09-01T16:22:17.452Z,2.33
2017-09-01T16:24:45.954Z,2.00
2017-09-01T16:27:14.349Z,2.20
2017-09-01T16:29:43.279Z,2.60
2017-09-01T16:32:23.572Z,2.87
2017-09-01T16:34:51.852Z,2.70
2017-09-01T16:37:21.175Z,2.63
2017-09-01T16:39:49.400Z,1.87
2017-09-01T16:42:18.823Z,2.37
2017-09-01T16:44:47.916Z,2.47
2017-09-01T16:47:21.910Z,2.70
2017-09-01T16:49:50.729Z,2.40
2017-09-01T16:52:22.853Z,2.67
2017-09-01T16:54:52.368Z,2.67
2017-09-01T16:57:26.704Z,2.30
2017-09-01T16:59:55.154Z,2.80
2017-09-01T17:02:23.835Z,2.97
2017-09-01T17:05:00.125Z,2.40
2017-09-01T17:07:28.429Z,2.10
2017-09-01T17:09:56.763Z,2.80
2017-09-01T17:12:25.607Z,2.00
2017-09-01T17:14:54.868Z,2.00
2017-09-01T17:17:23.004Z,2.53
2017-09-01T17:19:51.599Z,2.60
2017-09-01T17:22:19.936Z,2.33
2017-09-01T17:24:51.216Z,2.10
2017-09-01T17:27:19.416Z,2.53
2017-09-01T17:29:50.650Z,2.50
2017-09-01T17:32:19.824Z,2.73
2017-09-01T17:34:51.477Z,2.13
2017-09-01T17:37:20.590Z,1.90
2017-09-01T17:39:49.366Z,2.50
2017-09-01T17:42:17.852Z,2.53
2017-09-01T17:44:46.975Z,2.33
2017-09-01T17:47:17.397Z,2.30
2017-09-01T17:49:49.814Z,2.57
2017-09-01T17:52:18.021Z,2.43
2017-09-01T17:54:46.281Z,2.30
2017-09-01T17:57:20.337Z,2.40
2017-09-01T17:59:50.101Z,2.33
2017-09-01T18:02:25.079Z,3.30
2017-09-01T18:04:55.419Z,2.87
2017-09-01T18:07:23.588Z,2.73
2017-09-01T18:09:52.679Z,2.43
2017-09-01T18:12:23.274Z,2.20
2017-09-01T18:14:54.340Z,2.27
2017-09-01T18:17:22.731Z,2.30
2017-09-01T18:19:50.885Z,2.70
2017-09-01T18:22:19.119Z,3.20
2017-09-01T18:24:47.295Z,2.20
2017-09-01T18:27:15.467Z,2.83
2017-09-01T18:29:43.606Z,2.33
2017-09-01T18:32:11.839Z,2.97
2017-09-01T18:34:40.012Z,3.23
2017-09-01T18:37:16.653Z,3.30
2017-09-01T18:39:45.728Z,2.80
2017-09-01T18:42:16.158Z,2.70
2017-09-01T18:44:54.395Z,3.03
2017-09-01T18:50:38.625Z,3.30
2017-09-01T18:53:08.776Z,3.70
2017-09-01T18:55:37.808Z,3.17
2017-09-01T18:58:06.941Z,3.20
2017-09-01T19:00:35.885Z,3.47
2017-09-01T19:03:06.728Z,3.57
2017-09-01T19:05:35.843Z,3.80
2017-09-01T19:08:24.209Z,4.60
2017-09-01T19:11:28.460Z,4.00
2017-09-01T19:13:58.812Z,3.40
2017-09-01T19:16:27.800Z,3.70
2017-09-01T19:18:58.403Z,3.63
2017-09-01T19:21:27.549Z,3.47
2017-09-01T19:24:09.997Z,3.27
2017-09-01T19:26:42.149Z,3.30
2017-09-01T19:29:13.447Z,3.77
2017-09-01T19:34:53.749Z,4.10
2017-09-01T19:37:37.293Z,3.77
2017-09-01T19:40:10.337Z,3.30
2017-09-01T19:42:51.869Z,3.80
2017-09-01T19:45:24.526Z,4.03
2017-09-01T19:47:59.938Z,3.90
2017-09-01T19:50:28.123Z,4.10
2017-09-01T19:52:58.488Z,3.67
2017-09-01T19:55:33.293Z,4.20
2017-09-01T19:58:01.458Z,3.73
2017-09-01T20:03:33.457Z,3.97
2017-09-01T20:06:06.153Z,4.93
2017-09-01T20:08:40.067Z,4.90
2017-09-01T20:11:17.233Z,4.60
2017-09-01T20:14:05.481Z,4.73
2017-09-01T20:16:37.666Z,4.60
2017-09-01T20:19:06.482Z,3.20
2017-09-01T20:21:37.155Z,3.63
2017-09-01T20:24:05.299Z,3.77
2017-09-01T20:26:37.631Z,3.37
2017-09-01T20:29:05.900Z,4.07
2017-09-01T20:31:35.921Z,3.13
2017-09-01T20:34:19.148Z,2.80
2017-09-01T20:37:03.103Z,3.43
2017-09-01T20:39:32.586Z,3.47
2017-09-01T20:42:02.444Z,3.23
2017-09-01T20:44:32.792Z,3.30
2017-09-01T20:47:03.556Z,3.00
2017-09-01T20:49:31.705Z,2.67
2017-09-01T20:55:21.991Z,2.90
2017-09-01T20:57:51.006Z,3.10
2017-09-01T21:00:19.115Z,3.03
2017-09-01T21:02:47.252Z,2.97
2017-09-01T21:05:15.367Z,2.50
2017-09-01T21:07:44.389Z,1.70
2017-09-01T21:10:15.094Z,2.10
2017-09-01T21:12:44.018Z,2.13
2017-09-01T21:15:12.215Z,2.23
2017-09-01T21:17:40.340Z,2.90
2017-09-01T21:20:10.677Z,3.10
2017-09-01T21:22:39.953Z,3.97
2017-09-01T21:25:08.247Z,2.80
2017-09-01T21:27:36.491Z,2.40
2017-09-01T21:30:04.592Z,2.67
2017-09-01T21:32:32.750Z,2.60
2017-09-01T21:35:01.062Z,2.60
2017-09-01T21:37:29.234Z,2.10
2017-09-01T21:39:57.414Z,2.40
2017-09-01T21:42:25.571Z,2.20
2017-09-01T21:44:53.727Z,2.40
2017-09-01T21:47:21.896Z,2.43
2017-09-01T21:49:50.019Z,2.70
2017-09-01T21:52:20.830Z,2.73
2017-09-01T21:54:50.270Z,2.93
2017-09-01T21:57:18.562Z,3.00
2017-09-01T22:02:39.213Z,3.03
2017-09-01T22:05:10.755Z,3.20
2017-09-01T22:07:52.067Z,3.33
2017-09-01T22:10:40.604Z,4.17
2017-09-01T22:13:09.226Z,3.00
2017-09-01T22:15:38.596Z,3.17
2017-09-01T22:18:08.662Z,2.90
2017-09-01T22:20:38.629Z,3.27
2017-09-01T22:23:07.558Z,3.50
2017-09-01T22:25:36.247Z,3.20
2017-09-01T22:28:05.107Z,2.57
2017-09-01T22:30:34.064Z,3.30
2017-09-01T22:33:02.234Z,3.47
2017-09-01T22:35:31.736Z,3.20
2017-09-01T22:38:00.486Z,3.23
2017-09-01T22:40:28.763Z,2.93
2017-09-01T22:42:56.898Z,2.70
2017-09-01T22:45:25.092Z,3.30
2017-09-01T22:47:54.354Z,3.13
2017-09-01T22:50:25.552Z,2.20
2017-09-01T22:52:53.899Z,2.63
2017-09-01T22:55:24.161Z,2.53
2017-09-01T22:57:57.975Z,2.80
2017-09-01T23:00:26.142Z,2.30
2017-09-01T23:02:55.169Z,2.50
2017-09-01T23:05:24.135Z,2.90
2017-09-01T23:07:56.628Z,2.87
2017-09-01T23:10:27.700Z,2.73
2017-09-01T23:13:10.775Z,2.60
2017-09-01T23:15:43.144Z,2.27
2017-09-01T23:18:19.942Z,2.83
2017-09-01T23:20:48.703Z,3.00
2017-09-01T23:23:17.080Z,2.87
2017-09-01T23:25:45.242Z,2.50
2017-09-01T23:28:16.550Z,2.80
2017-09-01T23:30:44.646Z,2.77
2017-09-01T23:33:12.795Z,2.87
2017-09-01T23:35:40.916Z,2.87
2017-09-01T23:38:09.035Z,3.10
2017-09-01T23:40:37.190Z,3.00
2017-09-01T23:43:05.501Z,2.70
2017-09-01T23:45:33.939Z,2.83
2017-09-01T23:48:02.134Z,3.00
2017-09-01T23:50:31.127Z,2.80
2017-09-01T23:52:59.319Z,2.33
2017-09-01T23:55:27.471Z,3.00
2017-09-01T23:57:56.613Z,2.50
